Port Jefferson, NY

2:30 AM EDT on May 28, 2015 (GMT -0400)
Canyon Creek | | Change Station
CLOSE
Current Station
Personal Weather Station
Location: Port Jefferson, NY
Elevation: 233 ft
Nearby Weather Stations

Elev 233 ft 40.94 °N, 73.06 °W | Updated 9 seconds ago

Partly Cloudy
Partly Cloudy
64.4 °F
Feels Like 64.4 °F
N
8.6
Wind Variable Wind from NW
Gusts 10.7 mph

Today
High -- | Low -- °F
--% Chance of Precip.
Yesterday
High -- | Low -- °F
Precip. -- in
5:24 AM 8:14 PM
Waxing Gibbous, 73% visible
Pressure 30.14 in
Visibility 10.0 miles
Clouds Clear
Dew Point 63 °F
Humidity 95%
Rainfall 0.00 in
Snow Depth Not available.
UV 0 out of 12
Pollen 8.00 out of 12
Air Quality Not available.
Flu Activity Widespread
METAR KISP 280556Z AUTO 21011KT 10SM CLR 18/16 A3014 RMK AO2 SLP205 T01780156 10194 20178 56008

More Conditions Fewer Conditions

Pressure 30.14 in
Visibility 10.0 miles
Clouds Clear
Dew Point 63 °F
Humidity 95%
Rainfall 0.00 in
Snow Depth Not available.
UV 0 out of 12
Pollen 8.00 out of 12
Air Quality Not available.
Flu Activity Widespread
METAR KISP 280556Z AUTO 21011KT 10SM CLR 18/16 A3014 RMK AO2 SLP205 T01780156 10194 20178 56008

More Conditions Fewer Conditions

10-Day Weather Forecast

Almanac

Astronomy

May. 28, 2015 Rise Set
Actual Time
Civil Twilight
Nautical Twilight
Astronomical Twilight
Moon
Length of Visible Light
Length of Day
Tomorrow will be .
, % of the Moon is Illuminated

Today's Extremes

State Highs State Lows

Community

WunderPhotos

Upload Photos

1,824,931 photos uploaded!

WunderBlogs® & News

Nearby

Air Quality

  Air Quality AQ Index Pollutant
Not available.

Snow Depth

Station Depth Elevation

Earthquake Activity

City Distance Mag. Time & Date
Minimum magnitude displayed is 2.5.

Coastal Water Temperatures

Place Temperature

Stations

Nearby Weather Stations

Station Location Temp. Windchill Dew Point Humidity Wind Precip. Elev Updated Type